createdAt,value
2018-08-22T00:04:12.406Z,60.33
2018-08-22T00:09:09.655Z,58.71
2018-08-22T00:14:04.416Z,59.17
2018-08-22T00:18:59.123Z,59.89
2018-08-22T00:23:55.172Z,60.99
2018-08-22T00:28:49.820Z,61.54
2018-08-22T00:33:44.983Z,61.83
2018-08-22T00:38:39.660Z,62.18
2018-08-22T00:43:34.293Z,61.10
2018-08-22T00:48:28.919Z,62.23
2018-08-22T00:53:23.679Z,61.42
2018-08-22T00:58:18.320Z,62.65
2018-08-22T01:03:13.060Z,62.73
2018-08-22T01:08:07.677Z,62.13
2018-08-22T01:13:02.447Z,63.59
2018-08-22T01:17:57.123Z,62.68
2018-08-22T01:22:51.811Z,62.96
2018-08-22T01:27:46.819Z,63.59
2018-08-22T01:32:41.588Z,62.09
2018-08-22T01:37:36.243Z,64.02
2018-08-22T01:42:30.936Z,65.21
2018-08-22T01:47:25.661Z,66.67
2018-08-22T01:52:21.266Z,67.21
2018-08-22T01:57:15.934Z,68.55
2018-08-22T02:02:10.544Z,68.22
2018-08-22T02:07:05.350Z,68.66
2018-08-22T02:11:59.992Z,68.01
2018-08-22T02:16:54.628Z,68.75
2018-08-22T02:21:49.304Z,68.68
2018-08-22T02:26:44.088Z,68.83
2018-08-22T02:31:38.748Z,68.64
2018-08-22T02:36:33.566Z,68.55
2018-08-22T02:41:28.246Z,69.54
2018-08-22T02:46:23.060Z,69.33
2018-08-22T02:51:17.771Z,69.48
2018-08-22T02:56:12.431Z,70.00
2018-08-22T03:01:07.082Z,69.69
2018-08-22T03:06:01.804Z,69.40
2018-08-22T03:10:56.460Z,70.43
2018-08-22T03:15:51.135Z,69.98
2018-08-22T03:20:46.051Z,70.30
2018-08-22T03:25:40.880Z,71.51
2018-08-22T03:30:35.523Z,71.47
2018-08-22T03:35:30.203Z,70.95
2018-08-22T03:40:24.949Z,71.97
2018-08-22T03:45:19.574Z,71.95
2018-08-22T03:50:14.240Z,70.47
2018-08-22T03:55:09.075Z,70.62
2018-08-22T04:00:03.782Z,70.75
2018-08-22T04:04:58.472Z,71.85
2018-08-22T04:09:53.224Z,71.22
2018-08-22T04:14:47.884Z,72.21
2018-08-22T04:19:42.572Z,74.17
2018-08-22T04:24:37.307Z,72.43
2018-08-22T04:29:32.552Z,72.27
2018-08-22T04:34:27.275Z,72.20
2018-08-22T04:39:21.973Z,70.98
2018-08-22T04:44:16.681Z,72.05
2018-08-22T04:49:11.405Z,72.45
2018-08-22T04:54:06.149Z,72.50
2018-08-22T04:59:00.991Z,71.47
2018-08-22T05:03:55.842Z,71.45
2018-08-22T05:08:50.554Z,71.02
2018-08-22T05:13:45.247Z,70.35
2018-08-22T05:18:40.001Z,69.74
2018-08-22T05:23:34.783Z,71.18
2018-08-22T05:28:29.526Z,70.85
2018-08-22T05:33:24.305Z,70.91
2018-08-22T05:38:18.997Z,71.46
2018-08-22T05:43:13.735Z,71.16
2018-08-22T05:48:08.484Z,70.61
2018-08-22T05:53:03.531Z,70.44
2018-08-22T05:57:58.236Z,70.08
2018-08-22T06:02:52.985Z,70.88
2018-08-22T06:07:47.647Z,71.26
2018-08-22T06:12:42.350Z,70.31
2018-08-22T06:17:37.256Z,69.11
2018-08-22T06:22:33.018Z,69.43
2018-08-22T06:27:27.692Z,70.12
2018-08-22T06:32:22.401Z,70.38
2018-08-22T06:37:17.111Z,70.36
2018-08-22T06:42:11.913Z,69.26
2018-08-22T06:47:06.672Z,70.33
2018-08-22T06:52:01.327Z,70.46
2018-08-22T06:56:56.023Z,68.57
2018-08-22T07:01:50.758Z,68.17
2018-08-22T07:06:45.543Z,66.31
2018-08-22T07:11:40.234Z,65.53
2018-08-22T07:16:34.952Z,62.27
2018-08-22T07:21:29.684Z,60.27
2018-08-22T07:26:24.348Z,58.81
2018-08-22T07:31:19.000Z,59.54
2018-08-22T07:36:13.675Z,57.58
2018-08-22T07:41:08.599Z,56.84
2018-08-22T07:46:03.496Z,54.81
2018-08-22T07:50:58.218Z,56.06
2018-08-22T07:55:52.953Z,55.14
2018-08-22T08:00:47.661Z,54.19
2018-08-22T08:05:42.383Z,52.47
2018-08-22T08:10:37.771Z,53.81
2018-08-22T08:15:32.444Z,53.53
2018-08-22T08:20:27.139Z,52.22
2018-08-22T08:25:21.859Z,52.29
2018-08-22T08:30:16.660Z,52.54
2018-08-22T08:35:11.255Z,51.11
2018-08-22T08:40:06.109Z,50.80
2018-08-22T08:45:00.988Z,51.87
2018-08-22T08:49:55.734Z,52.60
2018-08-22T08:54:50.849Z,50.16
2018-08-22T08:59:45.485Z,49.62
2018-08-22T09:04:40.224Z,49.86
2018-08-22T09:09:34.922Z,51.04
2018-08-22T09:14:30.447Z,51.14
2018-08-22T09:19:25.166Z,49.10
2018-08-22T09:24:19.830Z,49.81
2018-08-22T09:29:14.387Z,49.53
2018-08-22T09:34:09.075Z,48.45
2018-08-22T09:39:04.689Z,50.02
2018-08-22T09:43:59.312Z,48.79
2018-08-22T09:48:53.976Z,47.56
2018-08-22T09:53:48.642Z,46.15
2018-08-22T09:58:43.308Z,46.45
2018-08-22T10:03:54.081Z,45.70
2018-08-22T10:08:48.756Z,43.81
2018-08-22T10:13:43.615Z,45.40
2018-08-22T10:18:38.241Z,44.66
2018-08-22T10:23:33.005Z,44.23
2018-08-22T10:28:27.671Z,41.95
2018-08-22T10:33:28.924Z,43.21
2018-08-22T10:38:23.562Z,40.15
2018-08-22T10:43:18.201Z,39.19
2018-08-22T10:48:12.869Z,42.48
2018-08-22T10:53:08.296Z,41.61
2018-08-22T10:58:04.560Z,42.00
2018-08-22T11:02:59.255Z,43.01
2018-08-22T11:07:53.906Z,44.25
2018-08-22T11:12:49.185Z,42.94
2018-08-22T11:17:43.879Z,43.01
2018-08-22T11:22:55.220Z,42.50
2018-08-22T11:28:06.632Z,41.52
2018-08-22T11:33:18.047Z,37.38
2018-08-22T11:38:12.708Z,36.01
2018-08-22T11:43:07.402Z,36.27
2018-08-22T11:48:02.072Z,35.57
2018-08-22T11:52:56.691Z,36.78
2018-08-22T11:57:51.437Z,36.46
2018-08-22T12:02:46.163Z,36.93
2018-08-22T12:07:40.959Z,36.45
2018-08-22T12:12:36.101Z,38.94
2018-08-22T12:17:30.827Z,37.58
2018-08-22T12:22:26.063Z,38.00
2018-08-22T12:27:20.756Z,37.71
2018-08-22T12:32:15.511Z,38.48
2018-08-22T12:37:10.169Z,39.49
2018-08-22T12:42:04.887Z,39.90
2018-08-22T12:46:59.495Z,39.57
2018-08-22T12:51:54.172Z,39.22
2018-08-22T12:56:48.749Z,40.51
2018-08-22T13:01:43.764Z,38.13
2018-08-22T13:06:38.539Z,36.34
2018-08-22T13:11:33.176Z,37.29
2018-08-22T13:16:27.884Z,35.71
2018-08-22T13:21:22.572Z,36.38
2018-08-22T13:26:17.213Z,37.38
2018-08-22T13:31:11.828Z,37.93
2018-08-22T13:36:06.629Z,35.39
2018-08-22T13:41:01.324Z,36.07
2018-08-22T13:45:56.097Z,36.92
2018-08-22T13:50:50.729Z,33.97
2018-08-22T13:55:45.334Z,33.12
2018-08-22T14:00:40.216Z,35.17
2018-08-22T14:05:35.050Z,32.13
2018-08-22T14:10:29.772Z,33.47
2018-08-22T14:15:24.476Z,32.69
2018-08-22T14:20:19.228Z,31.56
2018-08-22T14:25:13.938Z,33.22
2018-08-22T14:30:08.808Z,33.12
2018-08-22T14:35:03.532Z,31.42
2018-08-22T14:39:58.252Z,31.99
2018-08-22T14:44:52.933Z,33.38
2018-08-22T14:49:47.541Z,33.85
2018-08-22T14:54:42.204Z,34.41
2018-08-22T14:59:36.900Z,33.66
2018-08-22T15:04:31.774Z,33.66
2018-08-22T15:09:27.248Z,34.58
2018-08-22T15:14:21.932Z,34.60
2018-08-22T15:19:16.711Z,34.61
2018-08-22T15:24:13.336Z,35.22
2018-08-22T15:29:08.409Z,33.89
2018-08-22T15:34:03.098Z,34.85
2018-08-22T15:38:57.919Z,33.70
2018-08-22T15:43:52.497Z,31.91
2018-08-22T15:48:47.217Z,34.40
2018-08-22T15:53:42.024Z,31.98
2018-08-22T15:58:36.826Z,33.97
2018-08-22T16:03:31.635Z,32.10
2018-08-22T16:08:27.823Z,32.12
2018-08-22T16:13:30.084Z,31.92
2018-08-22T16:18:24.836Z,32.59
2018-08-22T16:23:19.513Z,31.82
2018-08-22T16:28:14.323Z,31.49
2018-08-22T16:33:09.629Z,31.13
2018-08-22T16:38:07.767Z,31.10
2018-08-22T16:43:02.657Z,31.49
2018-08-22T16:47:57.459Z,31.01
2018-08-22T16:52:52.376Z,31.83
2018-08-22T16:57:47.746Z,33.82
2018-08-22T17:02:42.790Z,33.54
2018-08-22T17:07:39.314Z,34.18
2018-08-22T17:12:43.119Z,34.88
2018-08-22T17:17:37.976Z,34.12
2018-08-22T17:22:33.076Z,34.31
2018-08-22T17:27:27.976Z,34.84
2018-08-22T17:32:22.720Z,36.92
2018-08-22T17:37:17.482Z,38.41
2018-08-22T17:42:12.204Z,41.29
2018-08-22T17:47:07.208Z,40.26
2018-08-22T17:52:05.976Z,40.77
2018-08-22T17:57:16.844Z,42.71
2018-08-22T18:02:11.594Z,43.46
2018-08-22T18:07:06.382Z,44.92
2018-08-22T18:12:01.313Z,45.58
2018-08-22T18:17:00.101Z,47.00
2018-08-22T18:21:55.070Z,48.64
2018-08-22T18:26:50.476Z,49.12
2018-08-22T18:31:45.194Z,49.38
2018-08-22T18:36:40.769Z,50.81
2018-08-22T18:41:35.609Z,50.92
2018-08-22T18:46:30.372Z,51.33
2018-08-22T18:51:25.091Z,50.15
2018-08-22T18:56:21.956Z,50.15
2018-08-22T19:01:17.198Z,50.02
2018-08-22T19:06:11.941Z,51.49
2018-08-22T19:11:07.030Z,49.62
2018-08-22T19:16:03.267Z,51.11
2018-08-22T19:21:00.200Z,50.65
2018-08-22T19:25:55.398Z,52.83
2018-08-22T19:30:50.140Z,53.31
2018-08-22T19:35:46.696Z,53.83
2018-08-22T19:40:41.452Z,54.87
2018-08-22T19:45:36.890Z,55.82
2018-08-22T19:50:32.343Z,54.96
2018-08-22T19:55:27.155Z,54.67
2018-08-22T20:00:21.925Z,55.12
2018-08-22T20:05:16.856Z,55.49
2018-08-22T20:10:11.873Z,55.24
2018-08-22T20:15:07.301Z,55.03
2018-08-22T20:20:02.057Z,54.14
2018-08-22T20:25:00.563Z,53.67
2018-08-22T20:30:04.401Z,55.33
2018-08-22T20:35:00.622Z,55.35
2018-08-22T20:40:00.555Z,53.77
2018-08-22T20:44:55.328Z,54.25
2018-08-22T20:49:50.554Z,54.33
2018-08-22T20:54:48.660Z,55.76
2018-08-22T20:59:43.392Z,54.30
2018-08-22T21:04:38.216Z,55.16
2018-08-22T21:09:32.982Z,54.81
2018-08-22T21:14:29.658Z,54.09
2018-08-22T21:19:24.460Z,54.18
2018-08-22T21:24:19.207Z,53.94
2018-08-22T21:29:14.181Z,53.57
2018-08-22T21:34:15.111Z,53.04
2018-08-22T21:39:15.040Z,53.34
2018-08-22T21:44:09.960Z,53.27
2018-08-22T21:49:10.069Z,53.39
2018-08-22T21:54:04.819Z,54.07
2018-08-22T21:58:59.564Z,55.33
2018-08-22T22:03:54.280Z,54.67
2018-08-22T22:08:49.092Z,55.41
2018-08-22T22:13:43.853Z,55.34
2018-08-22T22:18:38.652Z,54.49
2018-08-22T22:23:33.541Z,53.90
2018-08-22T22:28:32.306Z,54.08
2018-08-22T22:33:27.027Z,53.65
2018-08-22T22:38:21.727Z,55.14
2018-08-22T22:43:16.426Z,55.44
2018-08-22T22:48:11.265Z,55.38
2018-08-22T22:53:06.789Z,56.03
2018-08-22T22:58:02.837Z,55.41
2018-08-22T23:03:02.820Z,54.21
2018-08-22T23:07:57.866Z,54.77
2018-08-22T23:12:54.201Z,55.11
2018-08-22T23:17:51.608Z,56.08
2018-08-22T23:22:46.366Z,56.28
2018-08-22T23:27:41.849Z,57.60
2018-08-22T23:32:37.926Z,57.60
2018-08-22T23:42:38.889Z,57.94
2018-08-22T23:47:33.592Z,58.40
2018-08-22T23:52:34.940Z,58.36
2018-08-22T23:57:30.094Z,56.91
